createdAt,value
2023-07-15T00:02:15.245Z,63.30
2023-07-15T00:04:47.826Z,63.90
2023-07-15T00:07:18.282Z,63.20
2023-07-15T00:09:48.600Z,63.20
2023-07-15T00:12:19.371Z,63.00
2023-07-15T00:14:49.317Z,63.80
2023-07-15T00:17:19.777Z,63.00
2023-07-15T00:19:52.288Z,62.80
2023-07-15T00:22:22.826Z,62.80
2023-07-15T00:24:53.644Z,62.80
2023-07-15T00:27:27.038Z,63.20
2023-07-15T00:29:57.528Z,63.10
2023-07-15T00:32:28.916Z,63.80
2023-07-15T00:35:00.685Z,64.20
2023-07-15T00:37:32.230Z,63.50
2023-07-15T00:40:05.792Z,63.90
2023-07-15T00:43:05.720Z,64.10
2023-07-15T00:45:34.792Z,64.80
2023-07-15T00:48:16.036Z,64.60
2023-07-15T00:50:46.269Z,64.70
2023-07-15T00:53:16.966Z,65.10
2023-07-15T00:55:47.505Z,65.50
2023-07-15T00:58:17.588Z,65.60
2023-07-15T01:04:37.719Z,65.90
2023-07-15T01:07:10.250Z,66.10
2023-07-15T01:09:41.480Z,66.30
2023-07-15T01:12:23.045Z,66.50
2023-07-15T01:14:54.134Z,67.20
2023-07-15T01:17:24.605Z,67.00
2023-07-15T01:19:56.548Z,67.10
2023-07-15T01:22:27.664Z,68.20
2023-07-15T01:24:59.930Z,67.00
2023-07-15T01:27:30.166Z,67.20
2023-07-15T01:30:00.608Z,67.20
2023-07-15T01:32:31.507Z,67.30
2023-07-15T01:35:08.286Z,67.10
2023-07-15T01:37:41.890Z,67.90
2023-07-15T01:40:15.000Z,67.60
2023-07-15T01:42:44.896Z,67.50
2023-07-15T01:45:15.756Z,67.50
2023-07-15T01:47:46.035Z,67.70
2023-07-15T01:50:16.258Z,67.50
2023-07-15T01:52:46.813Z,68.00
2023-07-15T01:55:18.856Z,68.10
2023-07-15T01:58:09.510Z,68.40
2023-07-15T02:00:48.585Z,69.30
2023-07-15T02:03:25.184Z,70.10
2023-07-15T02:06:01.469Z,70.50
2023-07-15T02:08:43.031Z,70.80
2023-07-15T02:11:24.805Z,70.50
2023-07-15T02:14:04.382Z,71.40
2023-07-15T02:16:40.370Z,71.30
2023-07-15T02:19:10.744Z,71.00
2023-07-15T02:21:41.770Z,71.00
2023-07-15T02:24:11.805Z,71.10
2023-07-15T02:26:43.811Z,70.80
2023-07-15T02:29:16.246Z,71.10
2023-07-15T02:31:46.469Z,71.00
2023-07-15T02:34:18.017Z,71.20
2023-07-15T02:36:49.664Z,71.50
2023-07-15T02:39:19.930Z,71.60
2023-07-15T02:41:52.049Z,71.80
2023-07-15T02:44:22.120Z,71.50
2023-07-15T02:46:52.552Z,72.30
2023-07-15T02:49:23.045Z,71.60
2023-07-15T02:51:57.092Z,71.60
2023-07-15T02:54:31.806Z,71.50
2023-07-15T02:57:03.963Z,72.00
2023-07-15T02:59:36.101Z,72.20
2023-07-15T03:02:07.079Z,71.90
2023-07-15T03:04:37.583Z,72.20
2023-07-15T03:07:09.077Z,72.30
2023-07-15T03:09:39.344Z,72.50
2023-07-15T03:12:12.017Z,72.50
2023-07-15T03:14:43.755Z,73.10
2023-07-15T03:17:14.064Z,72.70
2023-07-15T03:19:43.982Z,72.80
2023-07-15T03:22:14.076Z,72.80
2023-07-15T03:24:44.158Z,72.90
2023-07-15T03:27:15.644Z,73.00
2023-07-15T03:29:45.863Z,73.10
2023-07-15T03:32:16.280Z,73.20
2023-07-15T03:34:46.379Z,73.30
2023-07-15T03:37:17.273Z,73.30
2023-07-15T03:39:53.425Z,73.50
2023-07-15T03:42:31.317Z,74.10
2023-07-15T03:45:05.095Z,74.80
2023-07-15T03:47:39.209Z,73.50
2023-07-15T03:50:15.063Z,73.60
2023-07-15T03:52:49.077Z,74.10
2023-07-15T03:55:21.640Z,73.90
2023-07-15T03:57:54.187Z,73.90
2023-07-15T04:00:25.161Z,73.90
2023-07-15T04:02:56.890Z,74.90
2023-07-15T04:05:26.874Z,75.40
2023-07-15T04:07:57.908Z,75.30
2023-07-15T04:10:29.925Z,75.30
2023-07-15T04:13:01.643Z,75.60
2023-07-15T04:15:33.655Z,75.80
2023-07-15T04:18:03.914Z,76.00
2023-07-15T04:20:34.949Z,75.90
2023-07-15T04:23:05.170Z,76.30
2023-07-15T04:25:35.594Z,76.40
2023-07-15T04:28:09.392Z,76.40
2023-07-15T04:30:41.498Z,76.70
2023-07-15T04:33:13.812Z,76.80
2023-07-15T04:35:44.728Z,76.70
2023-07-15T04:38:15.617Z,76.70
2023-07-15T04:40:45.882Z,76.90
2023-07-15T04:43:18.168Z,76.90
2023-07-15T04:45:48.656Z,77.10
2023-07-15T04:48:25.005Z,76.70
2023-07-15T04:51:01.600Z,77.80
2023-07-15T04:53:32.300Z,77.30
2023-07-15T04:56:04.436Z,77.10
2023-07-15T04:58:33.882Z,77.80
2023-07-15T05:01:01.924Z,77.90
2023-07-15T05:03:30.058Z,78.40
2023-07-15T05:05:59.231Z,78.10
2023-07-15T05:08:29.001Z,78.30
2023-07-15T05:10:58.915Z,78.20
2023-07-15T05:13:27.382Z,79.10
2023-07-15T05:15:57.602Z,80.20
2023-07-15T05:18:25.771Z,79.40
2023-07-15T05:20:54.074Z,79.00
2023-07-15T05:23:22.993Z,79.70
2023-07-15T05:25:50.963Z,80.90
2023-07-15T05:28:20.036Z,80.70
2023-07-15T05:30:49.133Z,80.20
2023-07-15T05:33:19.947Z,81.30
2023-07-15T05:35:48.807Z,81.20
2023-07-15T05:38:16.825Z,81.50
2023-07-15T05:40:45.073Z,80.60
2023-07-15T05:43:13.028Z,82.30
2023-07-15T05:45:41.182Z,82.30
2023-07-15T05:48:09.454Z,82.20
2023-07-15T05:50:38.919Z,81.10
2023-07-15T05:53:06.873Z,82.20
2023-07-15T05:55:35.746Z,81.80
2023-07-15T05:58:10.622Z,82.60
2023-07-15T06:00:39.965Z,83.10
2023-07-15T06:03:08.304Z,82.90
2023-07-15T06:05:38.217Z,83.60
2023-07-15T06:08:06.766Z,84.10
2023-07-15T06:10:34.968Z,84.20
2023-07-15T06:13:03.383Z,83.90
2023-07-15T06:15:32.230Z,83.80
2023-07-15T06:18:00.447Z,84.60
2023-07-15T06:20:28.774Z,84.80
2023-07-15T06:22:58.342Z,84.40
2023-07-15T06:25:30.658Z,84.60
2023-07-15T06:27:58.684Z,83.70
2023-07-15T06:30:27.320Z,84.00
2023-07-15T06:32:55.777Z,84.10
2023-07-15T06:35:23.822Z,83.80
2023-07-15T06:37:52.387Z,84.30
2023-07-15T06:40:22.261Z,84.80
2023-07-15T06:42:51.630Z,84.70
2023-07-15T06:45:22.208Z,84.50
2023-07-15T06:47:50.717Z,84.70
2023-07-15T06:50:18.849Z,85.30
2023-07-15T06:52:47.965Z,84.80
2023-07-15T06:55:16.487Z,85.40
2023-07-15T06:57:45.823Z,85.30
2023-07-15T07:00:15.133Z,84.80
2023-07-15T07:02:43.223Z,84.10
2023-07-15T07:05:11.321Z,83.10
2023-07-15T07:07:39.290Z,82.10
2023-07-15T07:10:08.339Z,82.10
2023-07-15T07:12:36.707Z,82.80
2023-07-15T07:15:07.547Z,82.00
2023-07-15T07:17:37.003Z,82.00
2023-07-15T07:20:05.575Z,82.40
2023-07-15T07:22:33.564Z,82.10
2023-07-15T07:25:02.903Z,81.20
2023-07-15T07:27:30.851Z,79.70
2023-07-15T07:30:00.716Z,80.50
2023-07-15T07:32:30.167Z,79.50
2023-07-15T07:34:59.440Z,79.10
2023-07-15T07:37:27.493Z,78.60
2023-07-15T07:39:55.554Z,79.00
2023-07-15T07:42:23.663Z,78.70
2023-07-15T07:44:51.716Z,79.30
2023-07-15T07:47:19.794Z,79.30
2023-07-15T07:49:49.394Z,79.40
2023-07-15T07:52:17.367Z,80.10
2023-07-15T07:54:45.401Z,80.10
2023-07-15T07:57:28.924Z,80.10
2023-07-15T08:04:52.476Z,81.30
2023-07-15T08:07:23.838Z,81.50
2023-07-15T08:09:56.113Z,80.30
2023-07-15T08:12:28.864Z,80.40
2023-07-15T08:14:59.058Z,79.00
2023-07-15T08:17:28.688Z,78.40
2023-07-15T08:20:00.925Z,77.80
2023-07-15T08:26:21.011Z,77.50
2023-07-15T08:28:51.607Z,76.30
2023-07-15T08:31:21.027Z,76.60
2023-07-15T08:33:55.156Z,74.10
2023-07-15T08:36:26.484Z,72.00
2023-07-15T08:38:57.362Z,71.10
2023-07-15T08:41:36.632Z,70.00
2023-07-15T08:44:07.136Z,70.20
2023-07-15T08:46:37.124Z,69.90
2023-07-15T08:49:07.901Z,69.20
2023-07-15T08:51:39.516Z,66.40
2023-07-15T08:54:12.223Z,64.80
2023-07-15T08:56:53.894Z,65.70
2023-07-15T08:59:28.943Z,64.30
2023-07-15T09:01:57.495Z,63.70
2023-07-15T09:04:27.215Z,63.90
2023-07-15T09:06:56.420Z,62.00
2023-07-15T09:09:33.245Z,62.80
2023-07-15T09:12:11.031Z,60.70
2023-07-15T09:14:52.958Z,63.10
2023-07-15T09:17:26.374Z,63.60
2023-07-15T09:19:55.697Z,64.80
2023-07-15T09:22:28.444Z,66.00
2023-07-15T09:25:05.964Z,65.20
2023-07-15T09:27:35.489Z,65.40
2023-07-15T09:30:03.580Z,66.00
2023-07-15T09:32:34.288Z,66.80
2023-07-15T09:35:07.192Z,67.20
2023-07-15T09:37:39.265Z,67.80
2023-07-15T09:40:10.272Z,68.90
2023-07-15T09:42:56.558Z,68.90
2023-07-15T09:45:36.159Z,69.70
2023-07-15T09:48:08.116Z,70.20
2023-07-15T09:50:39.541Z,69.70
2023-07-15T09:53:08.545Z,69.50
2023-07-15T09:55:39.566Z,70.10
2023-07-15T09:58:18.289Z,69.00
2023-07-15T10:00:51.175Z,69.20
2023-07-15T10:03:24.017Z,70.00
2023-07-15T10:05:54.619Z,71.30
2023-07-15T10:08:23.715Z,72.10
2023-07-15T10:10:52.018Z,73.10
2023-07-15T10:13:22.694Z,73.70
2023-07-15T10:15:51.360Z,73.90
2023-07-15T10:18:20.967Z,73.40
2023-07-15T10:20:54.895Z,73.50
2023-07-15T10:23:28.056Z,74.10
2023-07-15T10:26:07.873Z,75.20
2023-07-15T10:28:39.925Z,74.70
2023-07-15T10:31:12.994Z,74.00
2023-07-15T10:33:55.845Z,80.60
2023-07-15T10:36:46.288Z,82.10
2023-07-15T10:39:17.586Z,85.60
2023-07-15T10:41:47.877Z,87.20
2023-07-15T10:44:22.245Z,88.10
2023-07-15T10:46:52.955Z,90.50
2023-07-15T10:49:23.021Z,92.00
2023-07-15T10:51:56.374Z,90.50
2023-07-15T10:54:26.520Z,90.80
2023-07-15T10:56:55.159Z,91.40
2023-07-15T10:59:26.574Z,92.00
2023-07-15T11:01:55.779Z,92.20
2023-07-15T11:04:24.041Z,92.50
2023-07-15T11:06:53.595Z,93.30
2023-07-15T11:09:23.575Z,93.70
2023-07-15T11:11:53.604Z,93.80
2023-07-15T11:14:24.651Z,94.20
2023-07-15T11:16:53.892Z,94.60
2023-07-15T11:19:22.485Z,95.30
2023-07-15T11:21:51.130Z,96.40
2023-07-15T11:24:20.178Z,97.00
2023-07-15T11:26:48.402Z,97.60
2023-07-15T11:29:18.019Z,97.80
2023-07-15T11:31:49.909Z,98.20
2023-07-15T11:34:19.919Z,98.90
2023-07-15T11:36:50.235Z,99.80
2023-07-15T11:39:19.334Z,99.80
2023-07-15T11:41:48.252Z,99.90
2023-07-15T11:44:18.536Z,99.90
2023-07-15T11:46:49.483Z,99.90
2023-07-15T11:49:23.403Z,99.90
2023-07-15T11:51:56.766Z,99.90
2023-07-15T11:54:26.154Z,99.90
2023-07-15T11:56:59.867Z,99.90
2023-07-15T11:59:31.079Z,99.90
2023-07-15T12:02:04.322Z,99.90
2023-07-15T12:04:33.022Z,99.90
2023-07-15T12:07:06.014Z,99.90
2023-07-15T12:09:34.804Z,99.90
2023-07-15T12:12:03.180Z,99.90
2023-07-15T12:14:35.148Z,99.90
2023-07-15T12:17:07.140Z,99.90
2023-07-15T12:19:35.561Z,99.90
2023-07-15T12:22:04.324Z,99.90
2023-07-15T12:24:32.648Z,99.90
2023-07-15T12:27:01.177Z,99.90
2023-07-15T12:29:29.331Z,99.90
2023-07-15T12:31:57.493Z,99.90
2023-07-15T12:34:27.065Z,99.90
2023-07-15T12:36:57.926Z,99.90
2023-07-15T12:39:26.333Z,99.90
2023-07-15T12:41:56.309Z,99.90
2023-07-15T12:44:25.047Z,99.90
2023-07-15T12:46:53.249Z,99.90
2023-07-15T12:49:22.202Z,99.90
2023-07-15T12:51:53.337Z,99.90
2023-07-15T12:54:21.644Z,99.90
2023-07-15T12:56:50.382Z,99.90
2023-07-15T12:59:19.406Z,99.90
2023-07-15T13:01:47.756Z,99.90
2023-07-15T13:04:18.955Z,99.90
2023-07-15T13:06:48.868Z,99.90
2023-07-15T13:09:19.394Z,99.90
2023-07-15T13:11:47.955Z,99.90
2023-07-15T13:14:17.798Z,99.90
2023-07-15T13:16:48.991Z,99.90
2023-07-15T13:19:17.554Z,99.90
2023-07-15T13:21:45.999Z,99.90
2023-07-15T13:24:27.332Z,99.90
2023-07-15T13:26:56.628Z,99.90
2023-07-15T13:29:26.594Z,99.90
2023-07-15T13:31:55.678Z,99.90
2023-07-15T13:34:25.380Z,99.90
2023-07-15T13:36:53.699Z,99.90
2023-07-15T13:39:37.411Z,99.90
2023-07-15T13:42:08.347Z,99.90
2023-07-15T13:44:36.877Z,99.90
2023-07-15T13:47:07.017Z,99.90
2023-07-15T13:49:37.990Z,99.90
2023-07-15T13:52:07.478Z,99.90
2023-07-15T13:54:37.513Z,99.90
2023-07-15T13:57:06.600Z,99.90
2023-07-15T13:59:35.460Z,99.90
2023-07-15T14:02:04.119Z,99.90
2023-07-15T14:04:32.750Z,99.90
2023-07-15T14:07:01.927Z,99.90
2023-07-15T14:09:31.745Z,99.90
2023-07-15T14:12:01.432Z,99.90
2023-07-15T14:14:32.022Z,99.90
2023-07-15T14:17:00.574Z,99.90
2023-07-15T14:19:28.958Z,99.90
2023-07-15T14:22:13.744Z,99.90
2023-07-15T14:24:44.394Z,99.90
2023-07-15T14:27:15.384Z,99.90
2023-07-15T14:29:44.484Z,99.90
2023-07-15T14:32:13.778Z,99.90
2023-07-15T14:34:43.602Z,99.90
2023-07-15T14:37:12.189Z,99.90
2023-07-15T14:39:40.734Z,99.90
2023-07-15T14:42:09.236Z,99.90
2023-07-15T14:44:38.953Z,99.90
2023-07-15T14:47:07.595Z,99.90
2023-07-15T14:49:37.391Z,99.90
2023-07-15T14:52:06.732Z,99.90
2023-07-15T14:54:37.805Z,99.90
2023-07-15T14:57:08.456Z,99.90
2023-07-15T14:59:38.807Z,99.90
2023-07-15T15:02:08.067Z,99.90
2023-07-15T15:04:37.177Z,99.90
2023-07-15T15:07:07.705Z,99.90
2023-07-15T15:09:37.307Z,99.90
2023-07-15T15:12:07.089Z,99.90
2023-07-15T15:14:36.983Z,99.90
2023-07-15T15:17:07.536Z,99.90
2023-07-15T15:19:36.178Z,99.90
2023-07-15T15:22:04.891Z,99.90
2023-07-15T15:24:33.361Z,99.90
2023-07-15T15:27:01.984Z,99.90
2023-07-15T15:29:30.851Z,99.90
2023-07-15T15:32:00.418Z,99.90
2023-07-15T15:34:31.043Z,99.90
2023-07-15T15:37:00.079Z,99.90
2023-07-15T15:39:29.088Z,99.90
2023-07-15T15:41:58.353Z,99.90
2023-07-15T15:44:27.403Z,99.90
2023-07-15T15:46:58.933Z,99.90
2023-07-15T15:49:27.907Z,99.90
2023-07-15T15:51:59.321Z,99.90
2023-07-15T15:54:27.444Z,99.90
2023-07-15T15:56:56.227Z,99.90
2023-07-15T15:59:24.811Z,99.90
2023-07-15T16:01:53.292Z,99.90
2023-07-15T16:04:21.587Z,99.90
2023-07-15T16:06:50.820Z,99.90
2023-07-15T16:09:20.369Z,99.90
2023-07-15T16:11:48.806Z,99.90
2023-07-15T16:14:17.572Z,99.90
2023-07-15T16:16:46.272Z,99.90
2023-07-15T16:19:14.937Z,99.90
2023-07-15T16:21:44.027Z,99.90
2023-07-15T16:24:12.145Z,99.90
2023-07-15T16:26:41.592Z,99.90
2023-07-15T16:29:09.957Z,99.90
2023-07-15T16:31:40.386Z,99.90
2023-07-15T16:34:08.631Z,99.90
2023-07-15T16:36:36.928Z,99.90
2023-07-15T16:39:05.637Z,99.90
2023-07-15T16:41:34.343Z,99.90
2023-07-15T16:44:05.005Z,99.90
2023-07-15T16:46:33.100Z,99.90
2023-07-15T16:49:02.819Z,99.90
2023-07-15T16:51:31.071Z,99.90
2023-07-15T16:54:00.040Z,99.90
2023-07-15T16:56:28.060Z,99.90
2023-07-15T16:58:56.443Z,99.90
2023-07-15T17:01:27.778Z,99.90
2023-07-15T17:03:57.352Z,99.90
2023-07-15T17:06:25.622Z,99.90
2023-07-15T17:08:53.898Z,99.90
2023-07-15T17:11:22.317Z,99.90
2023-07-15T17:13:50.807Z,99.90
2023-07-15T17:16:19.108Z,99.90
2023-07-15T17:18:48.973Z,99.90
2023-07-15T17:21:17.496Z,99.90
2023-07-15T17:23:46.058Z,99.90
2023-07-15T17:26:14.953Z,99.90
2023-07-15T17:28:43.430Z,99.90
2023-07-15T17:31:14.896Z,99.90
2023-07-15T17:33:44.590Z,99.90
2023-07-15T17:36:14.827Z,99.90
2023-07-15T17:38:43.524Z,99.90
2023-07-15T17:41:11.827Z,99.90
2023-07-15T17:43:40.126Z,99.90
2023-07-15T17:46:08.597Z,99.90
2023-07-15T17:48:37.783Z,99.90
2023-07-15T17:51:06.397Z,99.90
2023-07-15T17:53:36.215Z,99.90
2023-07-15T17:56:04.432Z,99.90
2023-07-15T17:58:32.598Z,99.90
2023-07-15T18:01:03.258Z,99.90
2023-07-15T18:03:31.881Z,99.90
2023-07-15T18:06:00.241Z,99.90
2023-07-15T18:08:29.620Z,99.90
2023-07-15T18:10:59.353Z,99.90
2023-07-15T18:13:29.628Z,99.90
2023-07-15T18:15:58.021Z,99.90
2023-07-15T18:18:26.473Z,99.90
2023-07-15T18:20:55.002Z,99.90
2023-07-15T18:23:23.285Z,99.90
2023-07-15T18:25:51.911Z,99.90
2023-07-15T18:28:21.771Z,99.90
2023-07-15T18:30:50.174Z,99.90
2023-07-15T18:33:18.644Z,99.90
2023-07-15T18:35:48.439Z,99.90
2023-07-15T18:38:17.684Z,99.90
2023-07-15T18:40:47.634Z,99.90
2023-07-15T18:43:16.234Z,99.90
2023-07-15T18:45:46.508Z,99.90
2023-07-15T18:48:14.860Z,99.90
2023-07-15T18:50:43.725Z,99.90
2023-07-15T18:53:12.073Z,99.90
2023-07-15T18:55:41.228Z,99.90
2023-07-15T18:58:10.041Z,99.90
2023-07-15T19:00:38.536Z,99.90
2023-07-15T19:03:08.274Z,99.90
2023-07-15T19:05:36.826Z,99.90
2023-07-15T19:08:05.249Z,99.90
2023-07-15T19:10:33.996Z,99.90
2023-07-15T19:13:02.661Z,99.90
2023-07-15T19:15:31.294Z,99.90
2023-07-15T19:17:59.837Z,99.90
2023-07-15T19:20:30.574Z,99.90
2023-07-15T19:22:59.324Z,99.90
2023-07-15T19:25:27.823Z,99.90
2023-07-15T19:27:56.459Z,99.90
2023-07-15T19:30:26.134Z,99.90
2023-07-15T19:32:56.302Z,99.90
2023-07-15T19:35:27.309Z,99.90
2023-07-15T19:37:57.323Z,99.90
2023-07-15T19:40:25.737Z,99.90
2023-07-15T19:42:53.923Z,99.90
2023-07-15T19:45:23.474Z,99.90
2023-07-15T19:47:52.710Z,99.90
2023-07-15T19:50:21.406Z,99.90
2023-07-15T19:52:50.623Z,99.90
2023-07-15T19:55:20.786Z,99.90
2023-07-15T19:57:50.253Z,99.90
2023-07-15T20:00:19.556Z,99.90
2023-07-15T20:02:48.684Z,99.90
2023-07-15T20:05:18.611Z,99.90
2023-07-15T20:07:49.179Z,99.90
2023-07-15T20:10:18.123Z,99.90
2023-07-15T20:12:50.915Z,99.90
2023-07-15T20:15:19.819Z,99.90
2023-07-15T20:17:48.804Z,99.90
2023-07-15T20:20:18.125Z,99.90
2023-07-15T20:22:48.050Z,99.90
2023-07-15T20:25:17.581Z,99.90
2023-07-15T20:27:48.627Z,99.90
2023-07-15T20:30:17.770Z,99.90
2023-07-15T20:32:46.598Z,99.90
2023-07-15T20:35:17.342Z,99.90
2023-07-15T20:37:46.954Z,99.90
2023-07-15T20:40:15.357Z,99.90
2023-07-15T20:42:44.312Z,99.90
2023-07-15T20:45:15.112Z,99.90
2023-07-15T20:47:45.464Z,99.90
2023-07-15T20:50:15.544Z,99.90
2023-07-15T20:52:43.954Z,99.90
2023-07-15T20:55:13.233Z,99.90
2023-07-15T20:57:42.298Z,99.90
2023-07-15T21:00:13.182Z,99.90
2023-07-15T21:02:43.507Z,99.90
2023-07-15T21:05:13.183Z,99.90
2023-07-15T21:07:43.136Z,99.90
2023-07-15T21:10:11.746Z,99.90
2023-07-15T21:12:40.310Z,99.90
2023-07-15T21:15:09.794Z,99.90
2023-07-15T21:17:38.482Z,99.90
2023-07-15T21:20:12.458Z,99.90
2023-07-15T21:22:42.368Z,99.90
2023-07-15T21:25:11.482Z,99.90
2023-07-15T21:27:41.911Z,99.90
2023-07-15T21:30:14.503Z,99.90
2023-07-15T21:32:44.228Z,99.90
2023-07-15T21:35:16.093Z,99.90
2023-07-15T21:37:47.625Z,99.90
2023-07-15T21:40:17.363Z,99.90
2023-07-15T21:42:47.758Z,99.90
2023-07-15T21:45:20.508Z,99.90
2023-07-15T21:47:51.633Z,99.90
2023-07-15T21:50:24.672Z,99.90
2023-07-15T21:52:58.676Z,99.90
2023-07-15T21:55:29.790Z,99.90
2023-07-15T21:57:59.812Z,99.90
2023-07-15T22:00:30.047Z,99.90
2023-07-15T22:03:00.615Z,99.90
2023-07-15T22:05:31.690Z,99.90
2023-07-15T22:08:03.169Z,99.90
2023-07-15T22:10:32.786Z,99.90
2023-07-15T22:13:01.400Z,99.90
2023-07-15T22:15:31.840Z,99.90
2023-07-15T22:18:00.281Z,99.90
2023-07-15T22:20:30.778Z,99.90
2023-07-15T22:22:59.120Z,99.90
2023-07-15T22:25:27.461Z,99.90
2023-07-15T22:27:56.072Z,99.90
2023-07-15T22:30:24.627Z,99.90
2023-07-15T22:32:53.122Z,99.90
2023-07-15T22:35:21.529Z,99.90
2023-07-15T22:37:52.293Z,99.90
2023-07-15T22:40:20.860Z,99.90
2023-07-15T22:42:49.540Z,99.90
2023-07-15T22:45:18.649Z,99.90
2023-07-15T22:47:46.904Z,99.90
2023-07-15T22:50:15.966Z,99.90
2023-07-15T22:52:45.277Z,99.90
2023-07-15T22:55:15.262Z,99.90
2023-07-15T22:57:44.174Z,99.90
2023-07-15T23:00:13.934Z,99.90
2023-07-15T23:02:42.896Z,99.90
2023-07-15T23:05:12.122Z,99.90
2023-07-15T23:07:41.864Z,99.90
2023-07-15T23:10:11.481Z,99.90
2023-07-15T23:12:41.759Z,99.90
2023-07-15T23:15:12.184Z,99.90
2023-07-15T23:17:41.573Z,99.90
2023-07-15T23:20:10.861Z,99.90
2023-07-15T23:22:39.466Z,99.90
2023-07-15T23:25:09.362Z,99.90
2023-07-15T23:27:38.288Z,99.90
2023-07-15T23:30:09.953Z,99.90
2023-07-15T23:32:38.590Z,99.90
2023-07-15T23:35:08.438Z,99.90
2023-07-15T23:37:37.366Z,99.90
2023-07-15T23:40:06.690Z,99.90
2023-07-15T23:42:35.063Z,99.90
2023-07-15T23:45:04.474Z,99.90
2023-07-15T23:47:34.752Z,99.90
2023-07-15T23:50:03.687Z,99.90
2023-07-15T23:52:31.885Z,99.90
2023-07-15T23:55:03.928Z,99.90
2023-07-15T23:57:34.979Z,99.90
